Time;durP1;ratioP1;P1;durP2;ratioP2;P2;SDS_P1;SDS_P2;PMS_P1;PMS_P2;Temp;Humidity;BMP_temperature;BMP_pressure;BME280_temperature;BME280_humidity;BME280_pressure;Samples;Min_cycle;Max_cycle;Signal;HPM_P1;HPM_P2
2023/08/12 00:01:50;;;;;;;12.23;10.87;;;21.00;99.90;;;;;;5044727;28;20565;-81
2023/08/12 00:04:16;;;;;;;13.27;11.03;;;20.80;99.90;;;;;;5044536;28;20686;-81
2023/08/12 00:06:42;;;;;;;17.30;11.30;;;20.80;99.90;;;;;;5047198;28;20532;-82
2023/08/12 00:09:10;;;;;;;13.67;11.43;;;20.80;99.90;;;;;;5045471;28;20181;-80
2023/08/12 00:11:35;;;;;;;16.47;11.80;;;20.80;99.90;;;;;;5045487;28;20200;-81
2023/08/12 00:14:01;;;;;;;14.30;11.50;;;20.70;99.90;;;;;;5045678;28;20179;-81
2023/08/12 00:16:26;;;;;;;15.60;11.80;;;20.70;99.90;;;;;;5043495;28;20200;-80
2023/08/12 00:18:52;;;;;;;13.97;12.10;;;20.70;99.90;;;;;;5043464;28;20271;-80
2023/08/12 00:21:18;;;;;;;14.67;11.40;;;20.70;99.90;;;;;;5043406;28;20259;-80
2023/08/12 00:23:44;;;;;;;16.73;11.43;;;20.70;99.90;;;;;;5045819;28;20168;-81
2023/08/12 00:26:10;;;;;;;11.87;10.43;;;20.70;99.90;;;;;;5045399;28;20184;-81
2023/08/12 00:28:36;;;;;;;15.37;12.53;;;20.70;99.90;;;;;;5046318;28;20256;-81
2023/08/12 00:31:02;;;;;;;16.43;12.03;;;20.50;99.90;;;;;;5046595;28;20291;-81
2023/08/12 00:33:28;;;;;;;15.47;12.20;;;20.60;99.90;;;;;;5046604;28;20254;-81
2023/08/12 00:35:53;;;;;;;11.77;10.57;;;20.80;99.90;;;;;;5045765;28;20180;-80
2023/08/12 00:38:19;;;;;;;13.97;12.53;;;20.60;99.90;;;;;;5047154;28;20206;-81
2023/08/12 00:40:45;;;;;;;17.83;12.70;;;20.60;99.90;;;;;;5046484;28;20231;-81
2023/08/12 00:43:11;;;;;;;15.73;11.70;;;20.60;99.90;;;;;;5044746;28;20180;-81
2023/08/12 00:45:37;;;;;;;16.27;12.00;;;20.50;99.90;;;;;;5045313;28;20252;-81
2023/08/12 00:48:04;;;;;;;13.33;11.93;;;20.70;99.90;;;;;;5046281;28;20206;-81
2023/08/12 00:50:30;;;;;;;17.07;12.77;;;20.60;99.90;;;;;;5046322;28;20269;-81
2023/08/12 00:52:57;;;;;;;20.40;13.47;;;20.50;99.90;;;;;;5047139;28;20203;-81
2023/08/12 00:55:23;;;;;;;16.53;12.87;;;20.50;99.90;;;;;;5046799;28;20640;-81
2023/08/12 00:57:48;;;;;;;14.43;12.07;;;20.70;99.90;;;;;;5044436;28;20185;-81
2023/08/12 01:00:15;;;;;;;17.13;12.03;;;20.50;99.90;;;;;;5046823;28;20172;-81
2023/08/12 01:02:47;;;;;;;13.87;11.67;;;20.50;99.90;;;;;;5045771;28;20230;-81
2023/08/12 01:05:14;;;;;;;16.43;13.23;;;20.50;99.90;;;;;;5047883;28;20157;-82
2023/08/12 01:07:39;;;;;;;14.53;12.00;;;20.50;99.90;;;;;;5046706;28;20184;-82
2023/08/12 01:10:05;;;;;;;14.00;12.40;;;20.50;99.90;;;;;;5046833;28;20218;-82
2023/08/12 01:12:44;;;;;;;15.37;13.30;;;20.40;99.90;;;;;;5047947;28;20529;-81
2023/08/12 01:15:24;;;;;;;15.67;12.53;;;20.40;99.90;;;;;;5050406;28;20160;-82
2023/08/12 01:17:52;;;;;;;15.80;11.80;;;20.40;99.90;;;;;;5056000;28;20168;-82
2023/08/12 01:20:26;;;;;;;15.20;12.93;;;20.40;99.90;;;;;;5052930;28;20184;-81
2023/08/12 01:23:14;;;;;;;15.57;12.30;;;20.40;99.90;;;;;;5045761;28;20215;-81
2023/08/12 01:25:43;;;;;;;17.57;12.87;;;20.40;99.90;;;;;;5043354;28;20172;-81
2023/08/12 01:28:09;;;;;;;16.77;13.33;;;20.40;99.90;;;;;;5044595;28;20196;-81
2023/08/12 01:30:54;;;;;;;18.73;13.27;;;20.40;99.90;;;;;;5044941;28;20693;-81
2023/08/12 01:33:27;;;;;;;17.50;12.80;;;20.30;99.90;;;;;;5045626;28;20191;-81
2023/08/12 01:36:16;;;;;;;17.13;12.07;;;20.30;99.90;;;;;;5046157;28;20179;-81
2023/08/12 01:38:42;;;;;;;20.23;11.87;;;20.30;99.90;;;;;;5044596;28;20165;-81
2023/08/12 01:41:10;;;;;;;21.73;13.10;;;20.30;99.90;;;;;;5044192;28;20200;-80
2023/08/12 01:43:36;;;;;;;20.27;13.57;;;20.30;99.90;;;;;;5044456;28;20189;-81
2023/08/12 01:46:01;;;;;;;18.83;12.80;;;20.30;99.90;;;;;;5044850;28;20267;-80
2023/08/12 01:48:27;;;;;;;18.13;12.40;;;20.30;99.90;;;;;;5044282;28;20180;-81
2023/08/12 01:50:53;;;;;;;18.60;11.70;;;20.30;99.90;;;;;;5043968;28;20200;-81
2023/08/12 01:53:18;;;;;;;20.97;12.90;;;20.30;99.90;;;;;;5044500;28;20204;-81
2023/08/12 01:55:44;;;;;;;22.20;12.83;;;20.30;99.90;;;;;;5044798;28;20178;-81
2023/08/12 01:58:10;;;;;;;21.00;11.90;;;20.30;99.90;;;;;;5045084;28;20230;-81
2023/08/12 02:00:36;;;;;;;19.53;12.33;;;20.30;99.90;;;;;;5044633;28;20192;-81
2023/08/12 02:03:02;;;;;;;13.57;11.13;;;20.30;99.90;;;;;;5045105;28;20670;-81
2023/08/12 02:05:27;;;;;;;15.33;12.23;;;20.30;99.90;;;;;;5045053;28;20184;-81
2023/08/12 02:07:53;;;;;;;16.60;11.60;;;20.20;99.90;;;;;;5045235;28;20183;-82
2023/08/12 02:10:19;;;;;;;15.10;10.67;;;20.20;99.90;;;;;;5045032;28;20196;-81
2023/08/12 02:12:44;;;;;;;15.87;11.47;;;20.20;99.90;;;;;;5045434;28;20203;-81
2023/08/12 02:15:10;;;;;;;15.20;11.13;;;20.20;99.90;;;;;;5043559;28;20168;-81
2023/08/12 02:17:37;;;;;;;16.43;11.77;;;20.20;99.90;;;;;;5043513;28;20173;-81
2023/08/12 02:20:04;;;;;;;15.03;11.33;;;20.20;99.90;;;;;;5043169;28;20184;-80
2023/08/12 02:22:30;;;;;;;16.00;10.77;;;20.20;99.90;;;;;;5043895;28;20184;-80
2023/08/12 02:24:55;;;;;;;16.03;11.33;;;20.20;99.90;;;;;;5044469;28;20188;-81
2023/08/12 02:27:21;;;;;;;13.10;11.13;;;20.20;99.90;;;;;;5044447;28;20180;-81
2023/08/12 02:29:46;;;;;;;18.70;12.10;;;20.20;99.90;;;;;;5046729;28;20222;-81
2023/08/12 02:32:12;;;;;;;15.50;10.20;;;20.20;99.90;;;;;;5046809;28;20219;-81
2023/08/12 02:34:38;;;;;;;23.17;11.63;;;20.20;99.90;;;;;;5047157;28;20537;-81
2023/08/12 02:37:03;;;;;;;15.43;10.07;;;20.00;99.90;;;;;;5046150;28;20172;-82
2023/08/12 02:39:29;;;;;;;21.93;12.57;;;20.10;99.90;;;;;;5046000;28;20168;-81
2023/08/12 02:41:54;;;;;;;17.40;10.30;;;20.10;99.90;;;;;;5046601;28;20188;-81
2023/08/12 02:44:20;;;;;;;16.90;10.00;;;20.10;99.90;;;;;;5046330;28;20208;-82
2023/08/12 02:46:45;;;;;;;14.40;10.27;;;20.00;99.90;;;;;;5046287;28;20172;-81
2023/08/12 02:49:11;;;;;;;15.03;9.30;;;20.10;99.90;;;;;;5047778;28;20181;-81
2023/08/12 02:51:36;;;;;;;15.93;11.23;;;20.10;99.90;;;;;;5047406;28;20204;-81
2023/08/12 02:54:02;;;;;;;15.27;10.23;;;20.10;99.90;;;;;;5047874;28;20173;-81
2023/08/12 02:56:27;;;;;;;17.77;12.77;;;20.10;99.90;;;;;;5061802;28;20183;-81
2023/08/12 02:58:53;;;;;;;16.80;12.90;;;20.20;99.90;;;;;;5067040;28;20180;-82
2023/08/12 03:01:20;;;;;;;17.63;12.60;;;20.10;99.90;;;;;;5066761;28;20195;-81
2023/08/12 03:03:45;;;;;;;17.77;12.43;;;20.00;99.90;;;;;;5050171;28;20181;-82
2023/08/12 03:06:11;;;;;;;19.53;13.30;;;20.10;99.90;;;;;;5048000;28;20222;-82
2023/08/12 03:08:36;;;;;;;21.43;14.50;;;20.30;99.90;;;;;;5049349;28;20176;-81
2023/08/12 03:11:03;;;;;;;20.60;14.57;;;20.10;99.90;;;;;;5049228;28;20225;-82
2023/08/12 03:13:28;;;;;;;18.20;14.23;;;20.10;99.90;;;;;;5061346;28;20694;-81
2023/08/12 03:15:54;;;;;;;23.17;15.53;;;20.10;99.90;;;;;;5067448;28;20186;-81
2023/08/12 03:18:21;;;;;;;18.77;14.60;;;20.10;99.90;;;;;;5069314;28;20182;-81
2023/08/12 03:20:46;;;;;;;22.23;16.07;;;20.10;99.90;;;;;;5070449;28;20203;-81
2023/08/12 03:23:12;;;;;;;23.80;15.93;;;20.10;99.90;;;;;;5056068;28;20191;-82
2023/08/12 03:25:37;;;;;;;20.10;15.23;;;20.10;99.90;;;;;;5066116;28;20195;-82
2023/08/12 03:28:03;;;;;;;24.53;15.73;;;20.00;99.90;;;;;;5051516;28;20195;-82
2023/08/12 03:30:29;;;;;;;20.07;15.47;;;20.10;99.90;;;;;;5050959;28;20200;-82
2023/08/12 03:32:54;;;;;;;22.23;15.80;;;20.00;99.90;;;;;;5056121;28;20203;-80
2023/08/12 03:35:20;;;;;;;27.70;17.50;;;20.10;99.90;;;;;;5057500;28;20177;-81
2023/08/12 03:37:45;;;;;;;22.53;16.53;;;20.30;99.90;;;;;;5048093;28;20211;-81
2023/08/12 03:40:11;;;;;;;22.33;15.20;;;20.10;99.90;;;;;;5059709;28;20229;-81
2023/08/12 03:42:37;;;;;;;21.80;15.43;;;20.10;99.90;;;;;;5046425;28;20652;-81
2023/08/12 03:45:02;;;;;;;18.97;14.90;;;20.10;99.90;;;;;;5046085;28;20184;-82
2023/08/12 03:47:28;;;;;;;21.20;15.13;;;20.10;99.90;;;;;;5044007;28;20190;-81
2023/08/12 03:49:54;;;;;;;21.70;14.37;;;20.10;99.90;;;;;;5057732;28;20279;-81
2023/08/12 03:52:19;;;;;;;20.93;15.73;;;20.10;99.90;;;;;;5063156;28;20342;-81
2023/08/12 03:54:45;;;;;;;23.30;15.63;;;20.00;99.90;;;;;;5061973;28;20186;-81
2023/08/12 03:57:11;;;;;;;26.10;15.47;;;20.10;99.90;;;;;;5065043;28;20176;-82
2023/08/12 03:59:36;;;;;;;23.23;16.03;;;20.10;99.90;;;;;;5064410;28;20167;-82
2023/08/12 04:02:03;;;;;;;22.73;16.10;;;20.20;99.90;;;;;;5064947;28;20540;-81
2023/08/12 04:04:29;;;;;;;21.20;15.47;;;20.10;99.90;;;;;;5061725;28;20175;-82
2023/08/12 04:06:55;;;;;;;25.17;15.30;;;20.10;99.90;;;;;;5047289;28;20175;-81
2023/08/12 04:09:20;;;;;;;21.53;14.70;;;20.10;99.90;;;;;;5046028;28;20176;-82
2023/08/12 04:11:46;;;;;;;23.70;15.00;;;20.00;99.90;;;;;;5046774;28;20264;-82
2023/08/12 04:14:13;;;;;;;24.80;15.17;;;20.10;99.90;;;;;;5046655;28;20199;-83
2023/08/12 04:16:39;;;;;;;21.77;14.67;;;20.00;99.90;;;;;;5064992;28;20640;-82
2023/08/12 04:19:05;;;;;;;21.73;15.13;;;20.00;99.90;;;;;;5065970;28;20250;-82
2023/08/12 04:21:30;;;;;;;20.80;14.20;;;20.10;99.90;;;;;;5066558;28;20192;-81
2023/08/12 04:23:56;;;;;;;18.67;13.47;;;20.00;99.90;;;;;;5064822;28;20195;-81
2023/08/12 04:26:21;;;;;;;16.60;13.33;;;20.00;99.90;;;;;;5068282;28;20179;-82
2023/08/12 04:28:47;;;;;;;19.70;13.43;;;20.00;99.90;;;;;;5067068;28;20191;-81
2023/08/12 04:31:12;;;;;;;20.67;13.67;;;19.90;99.90;;;;;;5067663;28;20225;-82
2023/08/12 04:33:38;;;;;;;20.60;13.60;;;19.90;99.90;;;;;;5069523;28;20203;-82
2023/08/12 04:36:04;;;;;;;23.17;14.13;;;19.90;99.90;;;;;;5068566;28;20191;-82
2023/08/12 04:38:31;;;;;;;26.40;15.20;;;19.90;99.90;;;;;;5069939;28;20202;-82
2023/08/12 04:40:56;;;;;;;22.77;14.10;;;19.90;99.90;;;;;;5067684;28;20571;-81
2023/08/12 04:43:22;;;;;;;19.10;13.80;;;19.80;99.90;;;;;;5065471;28;20186;-82
2023/08/12 04:45:48;;;;;;;20.23;13.20;;;19.90;99.90;;;;;;5048278;28;20188;-81
2023/08/12 04:48:13;;;;;;;16.30;13.50;;;19.80;99.90;;;;;;5045531;28;20173;-82
2023/08/12 04:50:39;;;;;;;22.17;14.20;;;19.90;99.90;;;;;;5045690;28;20678;-81
2023/08/12 04:53:05;;;;;;;15.97;14.27;;;19.90;99.90;;;;;;5045948;28;20291;-81
2023/08/12 04:55:31;;;;;;;20.57;14.10;;;19.80;99.90;;;;;;5046099;28;20264;-82
2023/08/12 04:57:57;;;;;;;18.87;13.80;;;20.00;99.90;;;;;;5044402;28;20184;-82
2023/08/12 05:00:23;;;;;;;18.23;14.57;;;19.80;99.90;;;;;;5046247;28;20219;-82
2023/08/12 05:02:49;;;;;;;24.73;15.87;;;20.00;99.90;;;;;;5045056;28;20180;-82
2023/08/12 05:05:15;;;;;;;18.87;14.33;;;20.00;99.90;;;;;;5047659;28;20195;-82
2023/08/12 05:07:40;;;;;;;21.20;14.23;;;20.10;99.90;;;;;;5046341;28;20180;-82
2023/08/12 05:10:06;;;;;;;19.70;14.77;;;20.10;99.90;;;;;;5046075;28;20176;-82
2023/08/12 05:12:32;;;;;;;24.30;14.37;;;20.10;99.90;;;;;;5045927;28;20267;-82
2023/08/12 05:14:57;;;;;;;17.47;14.77;;;20.00;99.90;;;;;;5055826;28;20179;-82
2023/08/12 05:17:23;;;;;;;20.20;13.60;;;20.20;99.90;;;;;;5066064;28;20581;-81
2023/08/12 05:19:49;;;;;;;19.43;14.03;;;20.10;99.90;;;;;;5066594;28;20227;-82
2023/08/12 05:22:15;;;;;;;19.80;13.43;;;20.10;99.90;;;;;;5066910;28;20518;-82
2023/08/12 05:24:40;;;;;;;19.57;14.03;;;20.10;99.90;;;;;;5067306;28;20197;-81
2023/08/12 05:27:06;;;;;;;15.70;12.83;;;19.90;99.90;;;;;;5067140;28;20171;-81
2023/08/12 05:29:31;;;;;;;17.50;11.67;;;20.10;99.90;;;;;;5064815;28;20221;-81
2023/08/12 05:31:57;;;;;;;17.30;12.43;;;20.10;99.90;;;;;;5065780;28;20700;-82
2023/08/12 05:34:23;;;;;;;16.80;11.27;;;20.10;99.90;;;;;;5067419;28;20260;-82
2023/08/12 05:36:48;;;;;;;15.40;11.50;;;20.10;99.90;;;;;;5067076;28;20198;-82
2023/08/12 05:39:15;;;;;;;18.47;11.20;;;20.10;99.90;;;;;;5068196;28;20175;-83
2023/08/12 05:41:41;;;;;;;16.80;10.87;;;20.10;99.90;;;;;;5067920;28;20203;-82
2023/08/12 05:44:06;;;;;;;12.03;10.30;;;20.20;99.90;;;;;;5069582;28;20708;-83
2023/08/12 05:46:32;;;;;;;14.70;9.63;;;20.10;99.90;;;;;;5068283;28;20186;-82
2023/08/12 05:48:58;;;;;;;12.07;9.60;;;20.10;99.90;;;;;;5074475;28;20202;-82
2023/08/12 05:51:23;;;;;;;14.07;9.63;;;20.10;99.90;;;;;;5075299;28;20278;-82
2023/08/12 05:53:49;;;;;;;15.63;9.80;;;20.10;99.90;;;;;;5066141;28;20180;-80
2023/08/12 05:56:14;;;;;;;12.83;9.97;;;20.10;99.90;;;;;;5063915;28;20171;-81
2023/08/12 05:58:40;;;;;;;16.30;10.80;;;20.30;99.90;;;;;;5064101;28;20623;-81
2023/08/12 06:01:05;;;;;;;14.07;9.43;;;20.20;99.90;;;;;;5063905;28;20601;-81
2023/08/12 06:03:31;;;;;;;16.53;10.43;;;20.30;99.90;;;;;;5064527;28;20179;-81
2023/08/12 06:05:56;;;;;;;12.17;9.37;;;20.20;99.90;;;;;;5063788;28;20180;-81
2023/08/12 06:08:22;;;;;;;14.30;9.33;;;20.20;99.90;;;;;;5063204;28;20214;-81
2023/08/12 06:10:48;;;;;;;13.57;8.90;;;20.10;99.90;;;;;;5063485;28;20191;-82
2023/08/12 06:13:13;;;;;;;15.07;9.37;;;20.20;99.90;;;;;;5061867;28;20249;-81
2023/08/12 06:15:39;;;;;;;14.90;9.40;;;20.20;99.90;;;;;;5065152;28;20176;-80
2023/08/12 06:18:05;;;;;;;14.13;9.30;;;20.20;99.90;;;;;;5067492;28;20179;-81
2023/08/12 06:20:30;;;;;;;12.37;8.40;;;20.20;99.90;;;;;;5067042;28;20282;-81
2023/08/12 06:22:56;;;;;;;15.57;9.03;;;20.20;99.90;;;;;;5067224;28;20179;-80
2023/08/12 06:25:22;;;;;;;13.33;9.63;;;20.20;99.90;;;;;;5068013;28;20172;-80
2023/08/12 06:27:47;;;;;;;13.50;9.70;;;20.20;99.90;;;;;;5066827;28;20190;-81
2023/08/12 06:30:14;;;;;;;15.93;10.40;;;20.20;99.90;;;;;;5066609;28;20170;-81
2023/08/12 06:32:40;;;;;;;14.47;9.93;;;20.20;99.90;;;;;;5067287;28;20210;-80
2023/08/12 06:35:06;;;;;;;18.37;9.80;;;20.20;99.90;;;;;;5066596;28;20235;-80
2023/08/12 06:37:31;;;;;;;12.53;9.73;;;20.20;99.90;;;;;;5068099;28;20597;-80
2023/08/12 06:39:57;;;;;;;12.87;9.33;;;20.20;99.90;;;;;;5067892;28;20168;-80
2023/08/12 06:42:23;;;;;;;14.60;9.97;;;20.20;99.90;;;;;;5068655;28;20670;-81
2023/08/12 06:44:55;;;;;;;13.87;10.00;;;20.20;99.90;;;;;;5068533;28;20187;-81
2023/08/12 06:47:21;;;;;;;11.73;9.00;;;20.20;99.90;;;;;;5068205;28;20182;-81
2023/08/12 06:49:46;;;;;;;13.60;8.97;;;20.30;99.90;;;;;;5070400;28;20191;-81
2023/08/12 06:52:12;;;;;;;15.97;9.03;;;20.20;99.90;;;;;;5066029;28;20207;-81
2023/08/12 06:54:38;;;;;;;12.10;9.10;;;20.20;99.90;;;;;;5064387;28;20182;-80
2023/08/12 06:57:03;;;;;;;17.07;9.20;;;20.20;99.90;;;;;;5065742;28;20550;-81
2023/08/12 06:59:29;;;;;;;11.17;9.20;;;20.30;99.90;;;;;;5067188;28;20175;-80
2023/08/12 07:01:55;;;;;;;13.53;8.33;;;20.20;99.90;;;;;;5063821;28;20203;-82
2023/08/12 07:04:20;;;;;;;12.97;9.00;;;20.20;99.90;;;;;;5067093;28;20176;-80
2023/08/12 07:06:46;;;;;;;14.80;8.67;;;20.20;99.90;;;;;;5066872;28;20183;-81
2023/08/12 07:09:12;;;;;;;10.40;8.43;;;20.30;99.90;;;;;;5066781;28;20198;-81
2023/08/12 07:11:38;;;;;;;13.90;8.30;;;20.40;99.90;;;;;;5065428;28;20203;-81
2023/08/12 07:14:03;;;;;;;10.33;9.07;;;20.30;99.90;;;;;;5064721;28;20182;-81
2023/08/12 07:16:29;;;;;;;10.10;8.60;;;20.30;99.90;;;;;;5063189;28;20279;-80
2023/08/12 07:18:55;;;;;;;9.73;8.73;;;20.30;99.90;;;;;;5064929;28;20168;-82
2023/08/12 07:21:20;;;;;;;10.27;8.57;;;20.20;99.90;;;;;;5064945;28;20192;-82
2023/08/12 07:23:46;;;;;;;13.13;8.70;;;20.40;99.90;;;;;;5066082;28;20242;-81
2023/08/12 07:26:11;;;;;;;11.93;8.40;;;20.40;99.90;;;;;;5064749;28;20179;-81
2023/08/12 07:28:37;;;;;;;10.60;8.53;;;20.40;99.90;;;;;;5065688;28;20235;-82
2023/08/12 07:31:02;;;;;;;10.73;8.57;;;20.60;99.90;;;;;;5067680;28;20196;-80
2023/08/12 07:33:28;;;;;;;9.00;7.80;;;20.50;99.90;;;;;;5067710;28;20199;-79
2023/08/12 07:35:53;;;;;;;9.07;8.17;;;20.50;99.90;;;;;;5067802;28;20168;-79
2023/08/12 07:38:19;;;;;;;8.47;7.50;;;20.50;99.90;;;;;;5067611;28;20174;-80
2023/08/12 07:40:45;;;;;;;9.43;8.13;;;20.50;99.90;;;;;;5066342;28;20183;-79
2023/08/12 07:43:10;;;;;;;8.77;7.87;;;20.60;99.90;;;;;;5066271;28;20179;-79
2023/08/12 07:45:36;;;;;;;8.50;7.17;;;20.60;99.90;;;;;;5065849;28;20180;-79
2023/08/12 07:48:02;;;;;;;7.60;6.90;;;20.60;99.90;;;;;;5065712;28;20627;-79
2023/08/12 07:50:27;;;;;;;9.00;7.30;;;20.70;99.90;;;;;;5066297;28;20195;-79
2023/08/12 07:52:53;;;;;;;10.27;7.90;;;20.70;99.90;;;;;;5068062;28;20203;-80
2023/08/12 07:55:18;;;;;;;8.40;6.93;;;20.70;99.90;;;;;;5068215;28;20191;-80
2023/08/12 07:57:45;;;;;;;12.60;7.07;;;20.80;99.90;;;;;;5071293;28;20183;-80
2023/08/12 08:00:12;;;;;;;8.30;6.63;;;21.00;99.90;;;;;;5071120;28;20171;-80
2023/08/12 08:02:37;;;;;;;9.77;6.27;;;20.80;99.90;;;;;;5071249;28;20171;-80
2023/08/12 08:05:04;;;;;;;8.40;5.60;;;20.90;99.90;;;;;;5072304;28;20170;-80
2023/08/12 08:07:29;;;;;;;7.47;5.37;;;20.90;99.90;;;;;;5076989;28;20234;-80
2023/08/12 08:09:55;;;;;;;6.70;4.93;;;20.80;99.90;;;;;;5073489;28;20179;-80
2023/08/12 08:12:20;;;;;;;5.67;5.03;;;20.90;99.90;;;;;;5068209;28;20230;-81
2023/08/12 08:14:46;;;;;;;7.60;5.37;;;20.90;99.90;;;;;;5070279;28;20172;-80
2023/08/12 08:17:12;;;;;;;7.80;5.03;;;20.80;99.90;;;;;;5069774;28;20206;-81
2023/08/12 08:19:37;;;;;;;7.67;5.27;;;20.90;99.90;;;;;;5068038;28;20184;-80
2023/08/12 08:22:03;;;;;;;8.97;6.10;;;20.90;99.90;;;;;;5068149;28;20191;-80
2023/08/12 08:24:28;;;;;;;10.57;5.80;;;20.90;99.90;;;;;;5068200;28;20197;-80
2023/08/12 08:26:57;;;;;;;8.87;6.90;;;20.90;99.90;;;;;;5066857;28;20167;-79
2023/08/12 08:29:23;;;;;;;8.53;6.20;;;21.00;99.90;;;;;;5067267;28;20195;-80
2023/08/12 08:31:48;;;;;;;7.50;5.80;;;21.00;99.90;;;;;;5068318;28;20211;-81
2023/08/12 08:34:15;;;;;;;10.70;6.23;;;21.10;99.90;;;;;;5066946;28;20178;-80
2023/08/12 08:36:40;;;;;;;7.33;5.97;;;21.10;99.90;;;;;;5067496;28;20186;-80
2023/08/12 08:39:06;;;;;;;8.90;6.53;;;21.20;99.90;;;;;;5067402;28;20172;-80
2023/08/12 08:41:35;;;;;;;9.43;6.73;;;21.20;99.90;;;;;;5065310;28;20191;-79
2023/08/12 08:44:05;;;;;;;8.03;6.47;;;21.20;99.90;;;;;;5065459;28;20594;-80
2023/08/12 08:46:31;;;;;;;7.87;6.33;;;21.30;99.90;;;;;;5067323;28;20554;-80
2023/08/12 08:48:59;;;;;;;7.03;5.67;;;21.30;99.90;;;;;;5068711;28;20289;-80
2023/08/12 08:51:25;;;;;;;8.63;6.07;;;21.30;99.90;;;;;;5054451;28;20199;-81
2023/08/12 08:53:54;;;;;;;6.70;5.30;;;21.40;99.90;;;;;;5064985;28;20612;-80
2023/08/12 08:56:20;;;;;;;9.03;5.93;;;21.30;99.90;;;;;;5069188;28;20263;-80
2023/08/12 08:58:46;;;;;;;6.23;5.10;;;21.50;99.90;;;;;;5068165;28;20171;-80
2023/08/12 09:01:13;;;;;;;7.10;5.00;;;21.30;99.90;;;;;;5067153;28;20290;-79
2023/08/12 09:03:39;;;;;;;5.93;4.53;;;21.40;99.90;;;;;;5064125;28;20290;-79
2023/08/12 09:06:05;;;;;;;8.40;5.37;;;21.30;99.90;;;;;;5066180;28;20202;-80
2023/08/12 09:08:34;;;;;;;6.27;4.57;;;21.30;99.90;;;;;;5067928;28;20167;-80
2023/08/12 09:11:02;;;;;;;6.63;3.70;;;21.40;99.90;;;;;;5064136;28;20256;-79
2023/08/12 09:13:28;;;;;;;7.70;4.07;;;21.20;99.90;;;;;;5066255;28;20199;-80
2023/08/12 09:15:54;;;;;;;4.77;4.00;;;21.20;99.90;;;;;;5066491;28;20191;-80
2023/08/12 09:18:23;;;;;;;6.47;4.37;;;21.20;99.90;;;;;;5067703;28;20168;-80
2023/08/12 09:20:53;;;;;;;6.33;3.50;;;21.20;99.90;;;;;;5067856;28;20254;-79
2023/08/12 09:23:19;;;;;;;6.97;3.83;;;21.10;99.90;;;;;;5069878;28;20190;-80
2023/08/12 09:25:45;;;;;;;7.03;3.67;;;21.20;99.90;;;;;;5070723;28;20167;-80
2023/08/12 09:28:11;;;;;;;4.97;3.40;;;21.20;99.90;;;;;;5069748;28;20198;-79
2023/08/12 09:30:38;;;;;;;5.43;3.33;;;21.10;99.90;;;;;;5068860;28;20294;-80
2023/08/12 09:33:07;;;;;;;5.67;3.53;;;21.20;99.90;;;;;;5074794;28;20206;-79
2023/08/12 09:35:34;;;;;;;3.57;3.00;;;21.30;99.90;;;;;;5076422;28;20251;-80
2023/08/12 09:38:02;;;;;;;6.07;3.13;;;21.20;99.90;;;;;;5074630;28;20215;-79
2023/08/12 09:40:28;;;;;;;5.30;3.47;;;21.20;99.90;;;;;;5070619;28;20220;-80
2023/08/12 09:42:54;;;;;;;5.80;2.60;;;21.20;99.90;;;;;;5062899;28;20179;-79
2023/08/12 09:45:23;;;;;;;3.33;2.50;;;21.20;99.90;;;;;;5064208;28;20181;-79
2023/08/12 09:47:49;;;;;;;5.00;2.93;;;21.10;99.90;;;;;;5049031;28;20202;-79
2023/08/12 09:50:15;;;;;;;5.57;2.60;;;21.10;99.90;;;;;;5048322;28;20176;-79
2023/08/12 09:52:40;;;;;;;3.00;2.40;;;21.10;99.90;;;;;;5049545;28;20231;-78
2023/08/12 09:55:08;;;;;;;2.87;2.30;;;21.00;99.90;;;;;;5055134;28;20207;-79
2023/08/12 09:57:36;;;;;;;3.13;2.17;;;21.00;99.90;;;;;;5069258;28;20167;-79
2023/08/12 10:00:03;;;;;;;3.67;2.20;;;21.10;99.90;;;;;;5069766;28;20163;-79
2023/08/12 10:02:30;;;;;;;3.13;2.67;;;21.20;99.90;;;;;;5070368;28;20218;-79
2023/08/12 10:04:58;;;;;;;4.33;2.60;;;21.20;99.90;;;;;;5069383;28;20211;-79
2023/08/12 10:07:24;;;;;;;7.53;2.70;;;21.30;99.90;;;;;;5069634;28;20186;-80
2023/08/12 10:09:50;;;;;;;3.57;2.40;;;21.40;99.90;;;;;;5070329;28;20175;-80
2023/08/12 10:12:16;;;;;;;3.20;2.00;;;21.40;99.90;;;;;;5070482;28;20211;-80
2023/08/12 10:14:42;;;;;;;2.33;2.10;;;21.40;99.90;;;;;;5069014;28;20215;-79
2023/08/12 10:17:09;;;;;;;2.77;1.83;;;21.30;99.90;;;;;;5071391;28;20172;-80
2023/08/12 10:19:36;;;;;;;3.17;1.87;;;21.60;99.90;;;;;;5070372;28;20171;-79
2023/08/12 10:22:03;;;;;;;5.03;2.07;;;21.40;99.90;;;;;;5070397;28;20206;-80
2023/08/12 10:24:29;;;;;;;3.23;1.73;;;21.60;99.90;;;;;;5072577;28;20179;-79
2023/08/12 10:26:55;;;;;;;2.43;1.77;;;21.50;99.90;;;;;;5074012;28;20199;-79
2023/08/12 10:29:24;;;;;;;1.50;1.40;;;21.50;99.90;;;;;;5070002;28;20211;-79
2023/08/12 10:31:50;;;;;;;1.83;1.50;;;21.70;99.90;;;;;;5068068;28;20293;-79
2023/08/12 10:34:23;;;;;;;2.97;1.43;;;21.70;99.90;;;;;;5068527;28;20187;-79
2023/08/12 10:36:55;;;;;;;1.97;1.50;;;21.60;99.90;;;;;;5068831;28;20187;-79
2023/08/12 10:39:26;;;;;;;1.47;1.37;;;21.60;99.90;;;;;;5069065;28;20152;-79
2023/08/12 10:41:54;;;;;;;2.10;1.40;;;21.50;99.90;;;;;;5069565;28;20195;-79
2023/08/12 10:44:22;;;;;;;1.30;1.20;;;21.50;99.90;;;;;;5069051;28;20176;-79
2023/08/12 10:46:52;;;;;;;1.43;1.10;;;21.50;99.90;;;;;;5069030;28;20732;-79
2023/08/12 10:49:20;;;;;;;1.47;1.10;;;21.60;99.90;;;;;;5069162;28;20176;-79
2023/08/12 10:51:52;;;;;;;1.33;1.20;;;21.70;99.90;;;;;;5069215;28;20195;-80
2023/08/12 10:54:26;;;;;;;3.83;1.30;;;21.70;99.90;;;;;;5068173;28;20203;-79
2023/08/12 10:57:08;;;;;;;1.00;0.90;;;21.70;99.90;;;;;;5068367;28;20238;-79
2023/08/12 10:59:46;;;;;;;1.40;1.13;;;21.70;99.90;;;;;;5068986;28;20175;-80
2023/08/12 11:02:30;;;;;;;1.07;0.97;;;21.80;99.90;;;;;;5068617;28;20202;-79
2023/08/12 11:05:02;;;;;;;2.13;1.10;;;21.90;99.90;;;;;;5067823;28;20183;-79
2023/08/12 11:08:05;;;;;;;1.10;1.00;;;21.80;99.90;;;;;;5068275;28;20164;-79
2023/08/12 11:10:32;;;;;;;1.97;1.00;;;21.80;99.90;;;;;;5068294;28;20282;-78
2023/08/12 11:12:59;;;;;;;2.80;1.20;;;21.90;99.90;;;;;;5068555;28;20199;-79
2023/08/12 11:15:41;;;;;;;1.80;1.00;;;21.90;99.90;;;;;;5067948;28;20198;-79
2023/08/12 11:18:18;;;;;;;1.13;0.93;;;22.00;99.90;;;;;;5062920;28;20206;-79
2023/08/12 11:20:44;;;;;;;0.97;0.70;;;21.90;99.90;;;;;;5062789;28;20210;-78
2023/08/12 11:23:10;;;;;;;1.03;0.80;;;21.90;99.90;;;;;;5063342;28;20171;-79
2023/08/12 11:25:38;;;;;;;3.43;0.90;;;21.90;99.90;;;;;;5063418;28;20673;-79
2023/08/12 11:28:05;;;;;;;1.37;0.80;;;21.90;99.90;;;;;;5060971;28;20191;-79
2023/08/12 11:30:30;;;;;;;1.33;0.80;;;21.90;99.90;;;;;;5062107;28;20210;-79
2023/08/12 11:32:56;;;;;;;1.97;0.80;;;21.70;99.90;;;;;;5061368;28;20199;-78
2023/08/12 11:35:23;;;;;;;2.43;0.87;;;21.80;99.90;;;;;;5061845;28;20168;-79
2023/08/12 11:37:52;;;;;;;2.20;0.80;;;22.00;99.90;;;;;;5061952;28;20176;-79
2023/08/12 11:40:19;;;;;;;1.00;0.67;;;21.90;99.90;;;;;;5062608;28;20258;-78
2023/08/12 11:42:46;;;;;;;1.50;0.90;;;22.20;99.90;;;;;;5061709;28;20172;-78
2023/08/12 11:45:13;;;;;;;1.73;1.00;;;22.20;99.90;;;;;;5061533;28;20172;-78
2023/08/12 11:47:40;;;;;;;2.10;1.00;;;22.10;99.90;;;;;;5061916;28;20176;-78
2023/08/12 11:50:08;;;;;;;1.77;1.07;;;22.30;99.90;;;;;;5062094;28;20194;-78
2023/08/12 11:52:34;;;;;;;1.07;0.77;;;22.30;99.90;;;;;;5061292;28;20679;-79
2023/08/12 11:55:00;;;;;;;1.43;1.03;;;22.30;99.90;;;;;;5062684;28;20171;-79
2023/08/12 11:57:27;;;;;;;1.60;1.13;;;22.30;99.90;;;;;;5062348;28;20167;-79
2023/08/12 11:59:59;;;;;;;1.90;1.13;;;22.20;99.90;;;;;;5061774;28;20175;-79
2023/08/12 12:02:25;;;;;;;5.97;2.23;;;22.10;99.90;;;;;;5061664;28;20251;-78
2023/08/12 12:04:52;;;;;;;2.33;1.50;;;21.90;99.90;;;;;;5058483;28;20264;-77
2023/08/12 12:07:23;;;;;;;3.67;1.40;;;21.80;99.90;;;;;;5058525;28;20182;-78
2023/08/12 12:09:54;;;;;;;3.33;2.23;;;21.60;99.90;;;;;;5060317;28;20214;-78
2023/08/12 12:12:26;;;;;;;3.50;3.20;;;21.40;99.90;;;;;;5058904;28;20226;-78
2023/08/12 12:14:54;;;;;;;5.40;3.97;;;21.30;99.90;;;;;;5060782;28;20166;-78
2023/08/12 12:17:23;;;;;;;5.77;4.27;;;21.20;99.90;;;;;;5060361;28;20175;-78
2023/08/12 12:19:57;;;;;;;3.60;3.30;;;21.10;99.90;;;;;;5060920;28;20175;-78
2023/08/12 12:22:28;;;;;;;3.80;3.50;;;21.00;99.90;;;;;;5060909;28;20200;-78
2023/08/12 12:24:54;;;;;;;4.30;3.90;;;21.00;99.90;;;;;;5060750;28;20495;-77
2023/08/12 12:27:19;;;;;;;4.60;3.60;;;21.00;99.90;;;;;;5059534;28;20182;-79
2023/08/12 12:29:45;;;;;;;4.50;3.80;;;20.80;99.90;;;;;;5064752;28;20183;-79
2023/08/12 12:32:11;;;;;;;6.83;3.90;;;20.80;99.90;;;;;;5065722;28;20262;-79
2023/08/12 12:34:36;;;;;;;5.83;3.90;;;20.90;99.90;;;;;;5064787;28;20167;-79